createdAt,value
2018-04-14T00:02:44.852Z,88.11
2018-04-14T00:04:46.890Z,88.83
2018-04-14T00:07:33.417Z,89.12
2018-04-14T00:11:00.366Z,88.92
2018-04-14T00:13:47.159Z,88.49
2018-04-14T00:16:31.649Z,88.92
2018-04-14T00:19:18.185Z,88.87
2018-04-14T00:22:04.494Z,88.83
2018-04-14T00:24:51.192Z,89.50
2018-04-14T00:27:35.668Z,90.55
2018-04-14T00:30:23.359Z,90.55
2018-04-14T00:33:07.562Z,90.36
2018-04-14T00:35:54.074Z,90.26
2018-04-14T00:38:41.297Z,90.55
2018-04-14T00:41:27.682Z,90.83
2018-04-14T00:44:14.399Z,90.83
2018-04-14T00:47:01.259Z,90.55
2018-04-14T00:49:47.795Z,91.21
2018-04-14T00:52:36.693Z,90.55
2018-04-14T00:55:20.877Z,89.97
2018-04-14T00:58:07.212Z,89.50
2018-04-14T01:00:53.780Z,88.78
2018-04-14T01:03:40.256Z,87.63
2018-04-14T01:06:24.429Z,87.44
2018-04-14T01:09:09.084Z,86.49
2018-04-14T01:11:53.303Z,86.49
2018-04-14T01:14:38.233Z,87.44
2018-04-14T01:17:24.279Z,87.49
2018-04-14T01:20:49.790Z,88.16
2018-04-14T01:23:36.243Z,87.87
2018-04-14T01:26:20.533Z,87.49
2018-04-14T01:29:05.261Z,87.78
2018-04-14T01:32:32.623Z,88.45
2018-04-14T01:35:19.044Z,88.83
2018-04-14T01:38:03.342Z,88.26
2018-04-14T01:40:50.898Z,87.82
2018-04-14T01:43:37.588Z,87.06
2018-04-14T01:46:24.198Z,87.63
2018-04-14T01:49:11.518Z,87.59
2018-04-14T01:51:55.876Z,88.92
2018-04-14T01:54:42.130Z,89.97
2018-04-14T01:57:29.222Z,90.69
2018-04-14T02:00:56.280Z,91.27
2018-04-14T02:03:40.854Z,91.36
2018-04-14T02:06:26.880Z,90.22
2018-04-14T02:09:11.861Z,90.88
2018-04-14T02:12:37.310Z,92.12
2018-04-14T02:15:24.953Z,92.03
2018-04-14T02:17:26.749Z,92.50
2018-04-14T02:20:14.330Z,89.83
2018-04-14T02:23:01.710Z,89.12
2018-04-14T02:25:47.617Z,89.74
2018-04-14T02:28:31.743Z,90.50
2018-04-14T02:30:33.411Z,90.50
2018-04-14T02:33:20.444Z,91.36
2018-04-14T02:36:06.700Z,91.83
2018-04-14T02:38:52.872Z,91.93
2018-04-14T02:41:37.038Z,92.32
2018-04-14T02:43:39.463Z,91.83
2018-04-14T02:46:25.921Z,91.83
2018-04-14T02:49:13.315Z,92.03
2018-04-14T02:51:59.612Z,92.32
2018-04-14T02:54:44.070Z,91.64
2018-04-14T02:57:30.580Z,92.12
2018-04-14T03:00:16.225Z,92.22
2018-04-14T03:03:02.202Z,92.12
2018-04-14T03:05:46.594Z,92.88
2018-04-14T03:08:33.589Z,92.79
2018-04-14T03:10:35.459Z,92.50
2018-04-14T03:13:23.082Z,91.74
2018-04-14T03:15:24.794Z,91.93
2018-04-14T03:18:52.242Z,91.46
2018-04-14T03:21:38.166Z,91.46
2018-04-14T03:24:24.248Z,91.88
2018-04-14T03:26:26.185Z,92.17
2018-04-14T03:29:12.364Z,92.12
2018-04-14T03:31:59.894Z,91.74
2018-04-14T03:34:47.160Z,92.08
2018-04-14T03:37:33.579Z,91.55
2018-04-14T03:40:20.125Z,91.55
2018-04-14T03:43:07.534Z,91.64
2018-04-14T03:45:53.874Z,89.54
2018-04-14T03:48:39.725Z,90.12
2018-04-14T03:51:28.319Z,90.12
2018-04-14T03:53:30.402Z,89.54
2018-04-14T03:56:17.338Z,87.74
2018-04-14T03:59:05.383Z,88.12
2018-04-14T04:02:32.874Z,88.02
2018-04-14T04:05:17.400Z,87.93
2018-04-14T04:08:03.855Z,88.02
2018-04-14T04:10:48.323Z,88.40
2018-04-14T04:13:34.340Z,88.98
2018-04-14T04:16:21.932Z,88.98
2018-04-14T04:19:06.544Z,89.74
2018-04-14T04:21:53.100Z,90.17
2018-04-14T04:24:41.937Z,91.31
2018-04-14T04:26:43.812Z,91.03
2018-04-14T04:29:30.313Z,92.17
2018-04-14T04:31:32.313Z,91.88
2018-04-14T04:34:19.175Z,92.27
2018-04-14T04:37:05.919Z,92.27
2018-04-14T04:39:50.529Z,92.46
2018-04-14T04:42:35.303Z,92.84
2018-04-14T04:45:21.565Z,92.17
2018-04-14T04:48:09.054Z,91.79
2018-04-14T04:50:53.491Z,91.98
2018-04-14T04:53:38.073Z,91.50
2018-04-14T04:56:24.471Z,91.22
2018-04-14T04:59:11.078Z,92.08
2018-04-14T05:01:57.495Z,91.79
2018-04-14T05:04:45.458Z,92.17
2018-04-14T05:07:32.162Z,91.98
2018-04-14T05:10:16.412Z,92.65
2018-04-14T05:13:02.929Z,92.08
2018-04-14T05:15:49.832Z,91.88
2018-04-14T05:18:36.969Z,92.08
2018-04-14T05:21:21.436Z,91.22
2018-04-14T05:24:05.903Z,91.60
2018-04-14T05:26:53.974Z,91.50
2018-04-14T05:29:40.478Z,91.88
2018-04-14T05:32:24.793Z,91.13
2018-04-14T05:35:11.407Z,91.60
2018-04-14T05:37:58.217Z,92.08
2018-04-14T05:40:42.766Z,92.08
2018-04-14T05:43:29.100Z,91.88
2018-04-14T05:46:13.493Z,92.08
2018-04-14T05:48:15.864Z,92.55
2018-04-14T05:51:02.328Z,92.27
2018-04-14T05:53:48.692Z,91.69
2018-04-14T05:56:34.735Z,91.50
2018-04-14T05:59:20.945Z,91.69
2018-04-14T06:01:23.027Z,91.79
2018-04-14T06:04:07.141Z,92.17
2018-04-14T06:06:55.025Z,92.08
2018-04-14T06:09:38.266Z,91.60
2018-04-14T06:12:33.714Z,91.22
2018-04-14T06:15:26.899Z,90.50
2018-04-14T06:18:33.309Z,90.59
2018-04-14T06:21:22.403Z,89.98
2018-04-14T06:25:00.868Z,90.55
2018-04-14T06:27:52.174Z,90.69
2018-04-14T06:30:38.210Z,91.55
2018-04-14T06:33:26.793Z,90.03
2018-04-14T06:36:36.487Z,88.88
2018-04-14T06:39:20.763Z,90.03
2018-04-14T06:42:09.993Z,89.74
2018-04-14T17:01:29.344Z,63.83
2018-04-14T17:04:14.075Z,63.64
2018-04-14T17:06:25.208Z,64.12
2018-04-14T17:09:21.380Z,64.22
2018-04-14T17:12:05.350Z,64.31
2018-04-14T17:14:58.365Z,63.92
2018-04-14T17:17:00.360Z,64.50
2018-04-14T17:19:53.640Z,64.98
2018-04-14T17:21:55.870Z,64.89
2018-04-14T17:24:56.387Z,64.79
2018-04-14T17:26:58.749Z,64.98
2018-04-14T17:30:00.993Z,65.08
2018-04-14T17:33:12.951Z,64.66
2018-04-14T17:35:57.514Z,65.91
2018-04-14T17:38:00.158Z,67.25
2018-04-14T17:40:50.177Z,65.81
2018-04-14T17:43:35.363Z,65.23
2018-04-14T17:46:24.846Z,66.58
2018-04-14T17:49:15.582Z,66.00
2018-04-14T17:52:10.694Z,66.38
2018-04-14T17:55:01.508Z,68.11
2018-04-14T17:57:52.645Z,66.86
2018-04-14T18:00:36.529Z,68.21
2018-04-14T18:03:29.752Z,68.68
2018-04-14T18:06:14.033Z,68.74
2018-04-14T18:09:11.128Z,69.03
2018-04-14T18:11:57.932Z,68.07
2018-04-14T18:14:41.970Z,67.11
2018-04-14T18:17:26.514Z,68.55
2018-04-14T18:20:54.204Z,69.42
2018-04-14T18:22:56.941Z,69.60
2018-04-14T18:25:40.846Z,70.56
2018-04-14T18:27:43.416Z,70.28
2018-04-14T18:30:30.456Z,70.53
2018-04-14T18:33:18.798Z,70.53
2018-04-14T18:35:21.566Z,70.24
2018-04-14T18:38:05.399Z,70.24
2018-04-14T18:40:56.245Z,70.72
2018-04-14T18:43:42.379Z,70.43
2018-04-14T18:46:26.766Z,70.34
2018-04-14T18:49:12.958Z,70.53
2018-04-14T18:51:56.822Z,71.11
2018-04-14T18:54:40.125Z,70.91
2018-04-14T18:56:43.607Z,71.48
2018-04-14T18:59:33.541Z,71.20
2018-04-14T19:02:23.522Z,71.16
2018-04-14T19:05:12.160Z,71.64
2018-04-14T19:07:59.055Z,71.83
2018-04-14T19:10:47.791Z,71.55
2018-04-14T19:13:35.578Z,71.36
2018-04-14T19:16:22.161Z,71.73
2018-04-14T19:19:12.468Z,71.16
2018-04-14T19:21:55.921Z,71.45
2018-04-14T19:24:41.413Z,71.45
2018-04-14T19:26:43.564Z,71.93
2018-04-14T19:29:28.380Z,71.73
2018-04-14T19:32:16.270Z,71.93
2018-04-14T19:34:18.426Z,72.22
2018-04-14T19:37:03.598Z,72.41
2018-04-14T19:39:05.129Z,72.69
2018-04-14T19:41:07.224Z,72.60
2018-04-14T19:43:09.568Z,72.47
2018-04-14T19:45:59.704Z,72.31
2018-04-14T19:49:01.324Z,71.93
2018-04-14T19:51:11.765Z,72.12
2018-04-14T19:54:07.857Z,72.02
2018-04-14T19:57:39.631Z,72.60
2018-04-14T19:59:43.635Z,73.04
2018-04-14T20:02:28.615Z,72.50
2018-04-14T20:04:36.346Z,72.28
2018-04-14T20:07:21.274Z,71.16
2018-04-14T20:10:07.607Z,71.55
2018-04-14T20:12:09.697Z,71.99
2018-04-14T20:14:54.606Z,72.28
2018-04-14T20:17:39.043Z,72.47
2018-04-14T20:19:40.818Z,72.47
2018-04-14T20:22:25.653Z,72.56
2018-04-14T20:25:11.399Z,72.37
2018-04-14T20:27:58.161Z,72.56
2018-04-14T20:29:59.996Z,72.94
2018-04-14T20:32:47.233Z,73.04
2018-04-14T20:34:49.207Z,72.85
2018-04-14T20:37:34.641Z,72.75
2018-04-14T20:40:19.485Z,72.56
2018-04-14T20:43:04.676Z,72.37
2018-04-14T20:45:52.621Z,71.89
2018-04-14T20:48:39.366Z,73.29
2018-04-14T20:51:25.999Z,73.19
2018-04-14T20:54:10.875Z,72.91
2018-04-14T20:56:12.647Z,72.91
2018-04-14T20:59:00.118Z,73.48
2018-04-14T21:01:46.529Z,73.67
2018-04-14T21:04:33.457Z,73.00
2018-04-14T21:07:20.137Z,73.39
2018-04-14T21:10:07.011Z,73.58
2018-04-14T21:12:54.410Z,73.39
2018-04-14T21:15:39.896Z,73.96
2018-04-14T21:17:41.570Z,73.67
2018-04-14T21:20:26.530Z,73.96
2018-04-14T21:22:28.228Z,73.63
2018-04-14T21:25:12.840Z,74.21
2018-04-14T21:28:01.050Z,74.69
2018-04-14T21:30:45.334Z,74.69
2018-04-14T21:32:46.897Z,74.69
2018-04-14T21:35:31.115Z,75.07
2018-04-14T21:38:16.710Z,74.59
2018-04-14T21:40:18.310Z,74.88
2018-04-14T21:43:03.831Z,74.40
2018-04-14T21:45:48.043Z,74.59
2018-04-14T21:48:33.178Z,75.16
2018-04-14T21:50:34.661Z,75.07
2018-04-14T21:52:36.961Z,74.88
2018-04-14T21:55:22.290Z,75.16
2018-04-14T21:58:08.438Z,74.69
2018-04-14T22:00:10.551Z,75.07
2018-04-14T22:02:55.299Z,74.78
2018-04-14T22:05:39.996Z,74.98
2018-04-14T22:09:06.770Z,74.88
2018-04-14T22:11:52.336Z,75.26
2018-04-14T22:14:36.848Z,75.64
2018-04-14T22:16:38.266Z,74.88
2018-04-14T22:19:24.289Z,74.88
2018-04-14T22:22:10.005Z,74.98
2018-04-14T22:24:56.034Z,75.07
2018-04-14T22:27:41.446Z,75.74
2018-04-14T22:30:27.198Z,75.83
2018-04-14T22:32:29.831Z,75.54
2018-04-14T22:35:14.793Z,76.03
2018-04-14T22:38:01.269Z,75.83
2018-04-14T22:40:47.585Z,75.93
2018-04-14T22:42:49.401Z,76.03
2018-04-14T22:46:16.467Z,76.69
2018-04-14T22:48:18.287Z,76.69
2018-04-14T22:51:02.508Z,76.88
2018-04-14T22:53:04.900Z,76.50
2018-04-14T22:55:49.683Z,76.40
2018-04-14T22:58:34.604Z,76.54
2018-04-14T23:01:20.406Z,76.82
2018-04-14T23:03:22.027Z,76.88
2018-04-14T23:06:07.315Z,76.31
2018-04-14T23:08:53.063Z,76.92
2018-04-14T23:11:38.738Z,77.21
2018-04-14T23:13:40.583Z,77.45
2018-04-14T23:16:25.007Z,77.45
2018-04-14T23:19:51.441Z,77.65
2018-04-14T23:22:36.377Z,76.50
2018-04-14T23:25:21.836Z,76.50
2018-04-14T23:28:05.906Z,77.08
2018-04-14T23:30:51.328Z,76.69
2018-04-14T23:33:37.998Z,77.08
2018-04-14T23:35:39.542Z,76.60
2018-04-14T23:37:41.412Z,77.45
2018-04-14T23:40:27.573Z,76.69
2018-04-14T23:43:12.092Z,77.26
2018-04-14T23:45:57.366Z,77.45
2018-04-14T23:48:42.671Z,77.74
2018-04-14T23:51:27.408Z,77.36
2018-04-14T23:54:12.002Z,76.98
2018-04-14T23:56:57.390Z,77.26
2018-04-14T23:59:42.142Z,77.45
